Dagmar, MT

10:27 PM MDT on August 29, 2014 (GMT -0600)
RAWS MEDICINE LAKE MT US | Change Station
CLOSE
Current Station
Personal Weather Station
Location: Medicine Lake, MT
Elevation: 1975 ft
Nearby Weather Stations

Elev 1975 ft 48.49 °N, 104.48 °W | Updated 29 minutes ago

Clear
Clear
57 °F
Feels Like 57 °F
N
7
Wind Variable Wind from East
Gusts 8.0 mph

Today
High -- | Low -- °F
--% Chance of Precip.
Yesterday
High -- | Low -- °F
Precip. -- in
6:10 AM 7:44 PM
Waxing Crescent, 19% visible
Pressure 29.96 in
Visibility 10.0 miles
Clouds Clear
Dew Point 52 °F
Humidity 82%
Rainfall 0.09 in
Snow Depth Not available.
UV 0 out of 12
Pollen 9.40 out of 12
Air Quality Not available.
Flu Activity Not available.
METAR KISN 300352Z AUTO 00000KT 10SM CLR 16/09 A2996 RMK AO2 SLP143 T01560094

More Conditions Fewer Conditions

Pressure 29.96 in
Visibility 10.0 miles
Clouds Clear
Dew Point 52 °F
Humidity 82%
Rainfall 0.09 in
Snow Depth Not available.
UV 0 out of 12
Pollen 9.40 out of 12
Air Quality Not available.
Flu Activity Not available.
METAR KISN 300352Z AUTO 00000KT 10SM CLR 16/09 A2996 RMK AO2 SLP143 T01560094

More Conditions Fewer Conditions

10-Day Weather Forecast

Almanac

Astronomy

Aug. 29, 2014 Rise Set
Actual Time 6:10 AM MDT 7:44 PM MDT
Civil Twilight 5:37 AM MDT 8:17 PM MDT
Nautical Twilight 4:56 AM MDT 8:57 PM MDT
Astronomical Twilight 4:12 AM MDT 9:41 PM MDT
Moon 10:24 AM MDT (8/29) 9:19 PM MDT (8/29)
Length of Visible Light 14h 40m
Length of Day
13h 34m
Tomorrow will be 3m 24s shorter.
Waxing Crescent, 19% of the Moon is Illuminated
Aug 30
Waxing Crescent
Sep 2
First Quarter
Sep 8
Full
Sep 15
Last Quarter
Sep 24
New

Today's Extremes

State Highs State Lows

Community

WunderPhotos

Upload Photos

1,748,451 photos uploaded!

Nearby

Snow Depth

Station Depth Elevation
Crystal Lake 0 in 6050 ft
Spur Park 0 in 8100 ft
Onion Park 0 in 7410 ft
Stringer Creek 0 in 6550 ft
Cole Creek 1 in 7850 ft

Earthquake Activity

City Distance Mag. Time & Date
No recent earthquake activity has been reported nearby.
Minimum magnitude displayed is 2.5.

Coastal Water Temperatures

Place Temperature
No Stations Reporting

Nearby Weather Stations